sensor_id;sensor_type;location;lat;lon;timestamp;temperature;humidity
1383;DHT22;685;47.196;11.880;2023-02-26T00:00:04;1.60;99.90
1383;DHT22;685;47.196;11.880;2023-02-26T00:02:33;1.70;99.90
1383;DHT22;685;47.196;11.880;2023-02-26T00:05:01;1.80;99.90
1383;DHT22;685;47.196;11.880;2023-02-26T00:07:29;2.00;99.90
1383;DHT22;685;47.196;11.880;2023-02-26T00:09:56;2.20;99.90
1383;DHT22;685;47.196;11.880;2023-02-26T00:12:24;2.10;99.90
1383;DHT22;685;47.196;11.880;2023-02-26T00:14:52;2.20;99.90
1383;DHT22;685;47.196;11.880;2023-02-26T00:17:29;2.30;99.90
1383;DHT22;685;47.196;11.880;2023-02-26T00:19:58;2.30;99.90
1383;DHT22;685;47.196;11.880;2023-02-26T00:22:26;2.40;99.90
1383;DHT22;685;47.196;11.880;2023-02-26T00:24:54;2.50;99.90
1383;DHT22;685;47.196;11.880;2023-02-26T00:27:21;2.30;99.90
1383;DHT22;685;47.196;11.880;2023-02-26T00:29:49;2.30;99.90
1383;DHT22;685;47.196;11.880;2023-02-26T00:32:16;2.20;99.90
1383;DHT22;685;47.196;11.880;2023-02-26T00:34:47;2.30;99.90
1383;DHT22;685;47.196;11.880;2023-02-26T00:37:26;2.10;99.90
1383;DHT22;685;47.196;11.880;2023-02-26T00:40:09;2.20;99.90
1383;DHT22;685;47.196;11.880;2023-02-26T00:42:42;2.40;99.90
1383;DHT22;685;47.196;11.880;2023-02-26T00:45:11;2.40;99.90
1383;DHT22;685;47.196;11.880;2023-02-26T00:47:46;2.30;99.90
1383;DHT22;685;47.196;11.880;2023-02-26T00:50:16;2.20;99.90
1383;DHT22;685;47.196;11.880;2023-02-26T00:52:54;2.10;99.90
1383;DHT22;685;47.196;11.880;2023-02-26T00:55:22;1.90;99.90
1383;DHT22;685;47.196;11.880;2023-02-26T00:57:49;1.90;99.90
1383;DHT22;685;47.196;11.880;2023-02-26T01:00:19;1.70;99.90
1383;DHT22;685;47.196;11.880;2023-02-26T01:02:49;1.20;99.90
1383;DHT22;685;47.196;11.880;2023-02-26T01:05:17;0.70;99.90
1383;DHT22;685;47.196;11.880;2023-02-26T01:07:51;0.90;99.90
1383;DHT22;685;47.196;11.880;2023-02-26T01:10:22;1.10;99.90
1383;DHT22;685;47.196;11.880;2023-02-26T01:12:50;1.00;99.90
1383;DHT22;685;47.196;11.880;2023-02-26T01:15:17;0.90;99.90
1383;DHT22;685;47.196;11.880;2023-02-26T01:17:48;0.80;99.90
1383;DHT22;685;47.196;11.880;2023-02-26T01:20:18;0.70;99.90
1383;DHT22;685;47.196;11.880;2023-02-26T01:22:50;0.80;99.90
1383;DHT22;685;47.196;11.880;2023-02-26T01:25:26;0.70;99.90
1383;DHT22;685;47.196;11.880;2023-02-26T01:27:54;0.60;99.90
1383;DHT22;685;47.196;11.880;2023-02-26T01:30:23;0.60;99.90
1383;DHT22;685;47.196;11.880;2023-02-26T01:32:56;0.50;99.90
1383;DHT22;685;47.196;11.880;2023-02-26T01:35:38;0.50;99.90
1383;DHT22;685;47.196;11.880;2023-02-26T01:38:15;0.60;99.90
1383;DHT22;685;47.196;11.880;2023-02-26T01:41:27;0.60;99.90
1383;DHT22;685;47.196;11.880;2023-02-26T01:43:59;0.70;99.90
1383;DHT22;685;47.196;11.880;2023-02-26T01:46:34;0.70;99.90
1383;DHT22;685;47.196;11.880;2023-02-26T01:49:03;1.00;99.90
1383;DHT22;685;47.196;11.880;2023-02-26T01:51:42;0.90;99.90
1383;DHT22;685;47.196;11.880;2023-02-26T01:54:09;0.70;99.90
1383;DHT22;685;47.196;11.880;2023-02-26T01:56:38;0.50;99.90
1383;DHT22;685;47.196;11.880;2023-02-26T01:59:08;0.50;99.90
1383;DHT22;685;47.196;11.880;2023-02-26T02:01:38;0.50;99.90
1383;DHT22;685;47.196;11.880;2023-02-26T02:04:09;0.50;99.90
1383;DHT22;685;47.196;11.880;2023-02-26T02:06:37;0.50;99.90
1383;DHT22;685;47.196;11.880;2023-02-26T02:09:05;0.40;99.90
1383;DHT22;685;47.196;11.880;2023-02-26T02:11:33;0.40;99.90
1383;DHT22;685;47.196;11.880;2023-02-26T02:14:09;0.30;99.90
1383;DHT22;685;47.196;11.880;2023-02-26T02:16:44;0.40;99.90
1383;DHT22;685;47.196;11.880;2023-02-26T02:19:52;0.40;99.90
1383;DHT22;685;47.196;11.880;2023-02-26T02:22:34;0.30;99.90
1383;DHT22;685;47.196;11.880;2023-02-26T02:25:19;0.30;99.90
1383;DHT22;685;47.196;11.880;2023-02-26T02:28:03;0.30;99.90
1383;DHT22;685;47.196;11.880;2023-02-26T02:30:37;0.20;99.90
1383;DHT22;685;47.196;11.880;2023-02-26T02:33:13;0.30;99.90
1383;DHT22;685;47.196;11.880;2023-02-26T02:35:43;0.30;99.90
1383;DHT22;685;47.196;11.880;2023-02-26T02:38:15;0.20;99.90
1383;DHT22;685;47.196;11.880;2023-02-26T02:40:46;0.30;99.90
1383;DHT22;685;47.196;11.880;2023-02-26T02:43:15;0.20;99.90
1383;DHT22;685;47.196;11.880;2023-02-26T02:45:44;0.30;99.90
1383;DHT22;685;47.196;11.880;2023-02-26T02:48:45;0.30;99.90
1383;DHT22;685;47.196;11.880;2023-02-26T02:51:37;0.30;99.90
1383;DHT22;685;47.196;11.880;2023-02-26T02:54:16;0.30;99.90
1383;DHT22;685;47.196;11.880;2023-02-26T02:57:00;0.40;99.90
1383;DHT22;685;47.196;11.880;2023-02-26T02:59:32;0.50;99.90
1383;DHT22;685;47.196;11.880;2023-02-26T03:02:05;0.50;99.90
1383;DHT22;685;47.196;11.880;2023-02-26T03:04:35;0.40;99.90
1383;DHT22;685;47.196;11.880;2023-02-26T03:07:03;0.40;99.90
1383;DHT22;685;47.196;11.880;2023-02-26T03:09:30;0.30;99.90
1383;DHT22;685;47.196;11.880;2023-02-26T03:11:58;0.30;99.90
1383;DHT22;685;47.196;11.880;2023-02-26T03:14:33;0.30;99.90
1383;DHT22;685;47.196;11.880;2023-02-26T03:17:18;0.40;99.90
1383;DHT22;685;47.196;11.880;2023-02-26T03:20:08;0.40;99.90
1383;DHT22;685;47.196;11.880;2023-02-26T03:22:42;0.40;99.90
1383;DHT22;685;47.196;11.880;2023-02-26T03:25:18;0.40;99.90
1383;DHT22;685;47.196;11.880;2023-02-26T03:27:51;0.40;99.90
1383;DHT22;685;47.196;11.880;2023-02-26T03:33:52;0.50;99.90
1383;DHT22;685;47.196;11.880;2023-02-26T03:36:39;0.30;99.90
1383;DHT22;685;47.196;11.880;2023-02-26T03:39:13;0.10;99.90
1383;DHT22;685;47.196;11.880;2023-02-26T03:41:45;0.20;99.90
1383;DHT22;685;47.196;11.880;2023-02-26T03:44:17;0.20;99.90
1383;DHT22;685;47.196;11.880;2023-02-26T03:46:53;0.10;99.90
1383;DHT22;685;47.196;11.880;2023-02-26T03:49:27;0.00;99.90
1383;DHT22;685;47.196;11.880;2023-02-26T03:51:59;0.10;99.90
1383;DHT22;685;47.196;11.880;2023-02-26T03:54:34;0.10;99.90
1383;DHT22;685;47.196;11.880;2023-02-26T03:57:15;0.30;99.90
1383;DHT22;685;47.196;11.880;2023-02-26T03:59:44;0.20;99.90
1383;DHT22;685;47.196;11.880;2023-02-26T04:02:15;0.20;99.90
1383;DHT22;685;47.196;11.880;2023-02-26T04:05:00;0.40;99.90
1383;DHT22;685;47.196;11.880;2023-02-26T04:08:04;0.60;99.90
1383;DHT22;685;47.196;11.880;2023-02-26T04:10:39;0.80;99.90
1383;DHT22;685;47.196;11.880;2023-02-26T04:13:07;1.00;99.90
1383;DHT22;685;47.196;11.880;2023-02-26T04:15:35;0.80;99.90
1383;DHT22;685;47.196;11.880;2023-02-26T04:18:04;1.00;99.90
1383;DHT22;685;47.196;11.880;2023-02-26T04:20:31;1.00;99.90
1383;DHT22;685;47.196;11.880;2023-02-26T04:23:01;0.30;99.90
1383;DHT22;685;47.196;11.880;2023-02-26T04:25:29;0.70;99.90
1383;DHT22;685;47.196;11.880;2023-02-26T04:27:58;0.90;99.90
1383;DHT22;685;47.196;11.880;2023-02-26T04:30:25;0.30;99.90
1383;DHT22;685;47.196;11.880;2023-02-26T04:32:53;0.50;99.90
1383;DHT22;685;47.196;11.880;2023-02-26T04:35:23;0.20;99.90
1383;DHT22;685;47.196;11.880;2023-02-26T04:37:54;0.20;99.90
1383;DHT22;685;47.196;11.880;2023-02-26T04:40:27;0.60;99.90
1383;DHT22;685;47.196;11.880;2023-02-26T04:42:55;0.60;99.90
1383;DHT22;685;47.196;11.880;2023-02-26T04:45:22;0.80;99.90
1383;DHT22;685;47.196;11.880;2023-02-26T04:47:50;1.00;99.90
1383;DHT22;685;47.196;11.880;2023-02-26T04:50:22;0.90;99.90
1383;DHT22;685;47.196;11.880;2023-02-26T04:52:50;1.00;99.90
1383;DHT22;685;47.196;11.880;2023-02-26T04:55:20;1.10;99.90
1383;DHT22;685;47.196;11.880;2023-02-26T04:57:49;1.20;99.90
1383;DHT22;685;47.196;11.880;2023-02-26T05:00:17;1.10;99.90
1383;DHT22;685;47.196;11.880;2023-02-26T05:02:45;1.00;99.90
1383;DHT22;685;47.196;11.880;2023-02-26T05:05:14;1.00;99.90
1383;DHT22;685;47.196;11.880;2023-02-26T05:07:42;1.00;99.90
1383;DHT22;685;47.196;11.880;2023-02-26T05:10:24;0.90;99.90
1383;DHT22;685;47.196;11.880;2023-02-26T05:12:52;0.70;99.90
1383;DHT22;685;47.196;11.880;2023-02-26T05:15:20;0.80;99.90
1383;DHT22;685;47.196;11.880;2023-02-26T05:17:47;0.90;99.90
1383;DHT22;685;47.196;11.880;2023-02-26T05:20:14;0.80;99.90
1383;DHT22;685;47.196;11.880;2023-02-26T05:22:42;0.90;99.90
1383;DHT22;685;47.196;11.880;2023-02-26T05:25:10;0.30;99.90
1383;DHT22;685;47.196;11.880;2023-02-26T05:27:40;0.60;99.90
1383;DHT22;685;47.196;11.880;2023-02-26T05:30:12;0.80;99.90
1383;DHT22;685;47.196;11.880;2023-02-26T05:32:39;0.60;99.90
1383;DHT22;685;47.196;11.880;2023-02-26T05:35:07;0.70;99.90
1383;DHT22;685;47.196;11.880;2023-02-26T05:37:36;0.80;99.90
1383;DHT22;685;47.196;11.880;2023-02-26T05:40:07;0.60;99.90
1383;DHT22;685;47.196;11.880;2023-02-26T05:42:38;0.50;99.90
1383;DHT22;685;47.196;11.880;2023-02-26T05:45:10;0.50;99.90
1383;DHT22;685;47.196;11.880;2023-02-26T05:47:38;0.40;99.90
1383;DHT22;685;47.196;11.880;2023-02-26T05:50:06;0.20;99.90
1383;DHT22;685;47.196;11.880;2023-02-26T05:52:33;-0.10;99.90
1383;DHT22;685;47.196;11.880;2023-02-26T05:55:02;-0.30;99.90
1383;DHT22;685;47.196;11.880;2023-02-26T05:57:30;0.00;99.90
1383;DHT22;685;47.196;11.880;2023-02-26T05:59:57;-0.30;99.90
1383;DHT22;685;47.196;11.880;2023-02-26T06:02:25;-0.40;99.90
1383;DHT22;685;47.196;11.880;2023-02-26T06:04:52;-0.40;99.90
1383;DHT22;685;47.196;11.880;2023-02-26T06:07:20;-0.40;99.90
1383;DHT22;685;47.196;11.880;2023-02-26T06:09:49;-0.40;99.90
1383;DHT22;685;47.196;11.880;2023-02-26T06:12:16;-0.40;99.90
1383;DHT22;685;47.196;11.880;2023-02-26T06:14:44;-0.30;99.90
1383;DHT22;685;47.196;11.880;2023-02-26T06:17:11;-0.30;99.90
1383;DHT22;685;47.196;11.880;2023-02-26T06:19:39;-0.40;99.90
1383;DHT22;685;47.196;11.880;2023-02-26T06:22:06;-0.50;99.90
1383;DHT22;685;47.196;11.880;2023-02-26T06:24:33;-0.50;99.90
1383;DHT22;685;47.196;11.880;2023-02-26T06:27:00;-0.50;99.90
1383;DHT22;685;47.196;11.880;2023-02-26T06:29:26;-0.60;99.90
1383;DHT22;685;47.196;11.880;2023-02-26T06:31:53;-0.60;99.90
1383;DHT22;685;47.196;11.880;2023-02-26T06:34:20;-0.70;99.90
1383;DHT22;685;47.196;11.880;2023-02-26T06:36:48;-0.70;99.90
1383;DHT22;685;47.196;11.880;2023-02-26T06:39:15;-0.80;99.90
1383;DHT22;685;47.196;11.880;2023-02-26T06:41:42;-0.70;99.90
1383;DHT22;685;47.196;11.880;2023-02-26T06:44:09;-0.70;99.90
1383;DHT22;685;47.196;11.880;2023-02-26T06:46:36;-0.80;99.90
1383;DHT22;685;47.196;11.880;2023-02-26T06:49:03;-0.70;99.90
1383;DHT22;685;47.196;11.880;2023-02-26T06:51:31;-0.50;99.90
1383;DHT22;685;47.196;11.880;2023-02-26T06:53:59;-0.50;99.90
1383;DHT22;685;47.196;11.880;2023-02-26T06:56:26;-0.60;99.90
1383;DHT22;685;47.196;11.880;2023-02-26T06:58:53;-0.70;99.90
1383;DHT22;685;47.196;11.880;2023-02-26T07:01:20;-0.60;99.90
1383;DHT22;685;47.196;11.880;2023-02-26T07:03:47;-0.60;99.90
1383;DHT22;685;47.196;11.880;2023-02-26T07:06:14;-0.70;99.90
1383;DHT22;685;47.196;11.880;2023-02-26T07:08:41;-0.60;99.90
1383;DHT22;685;47.196;11.880;2023-02-26T07:11:09;-0.50;99.90
1383;DHT22;685;47.196;11.880;2023-02-26T07:13:36;-0.60;99.90
1383;DHT22;685;47.196;11.880;2023-02-26T07:16:04;-0.60;99.90
1383;DHT22;685;47.196;11.880;2023-02-26T07:18:32;-0.60;99.90
1383;DHT22;685;47.196;11.880;2023-02-26T07:20:59;-0.50;99.90
1383;DHT22;685;47.196;11.880;2023-02-26T07:23:26;-0.50;99.90
1383;DHT22;685;47.196;11.880;2023-02-26T07:25:53;-0.60;99.90
1383;DHT22;685;47.196;11.880;2023-02-26T07:28:22;-0.60;99.90
1383;DHT22;685;47.196;11.880;2023-02-26T07:30:49;-0.60;99.90
1383;DHT22;685;47.196;11.880;2023-02-26T07:33:16;-0.60;99.90
1383;DHT22;685;47.196;11.880;2023-02-26T07:35:43;-0.70;99.90
1383;DHT22;685;47.196;11.880;2023-02-26T07:38:10;-0.60;99.90
1383;DHT22;685;47.196;11.880;2023-02-26T07:40:36;-0.60;99.90
1383;DHT22;685;47.196;11.880;2023-02-26T07:43:03;-0.60;99.90
1383;DHT22;685;47.196;11.880;2023-02-26T07:45:32;-0.70;99.90
1383;DHT22;685;47.196;11.880;2023-02-26T07:47:59;-0.70;99.90
1383;DHT22;685;47.196;11.880;2023-02-26T07:50:25;-0.70;99.90
1383;DHT22;685;47.196;11.880;2023-02-26T07:52:52;-0.70;99.90
1383;DHT22;685;47.196;11.880;2023-02-26T07:55:19;-0.70;99.90
1383;DHT22;685;47.196;11.880;2023-02-26T07:57:47;-0.60;99.90
1383;DHT22;685;47.196;11.880;2023-02-26T08:00:16;-0.40;99.90
1383;DHT22;685;47.196;11.880;2023-02-26T08:02:44;-0.60;99.90
1383;DHT22;685;47.196;11.880;2023-02-26T08:05:12;-0.60;99.90
1383;DHT22;685;47.196;11.880;2023-02-26T08:07:39;-0.60;99.90
1383;DHT22;685;47.196;11.880;2023-02-26T08:10:06;-0.50;99.90
1383;DHT22;685;47.196;11.880;2023-02-26T08:12:33;-0.50;99.90
1383;DHT22;685;47.196;11.880;2023-02-26T08:15:01;-0.50;99.90
1383;DHT22;685;47.196;11.880;2023-02-26T08:17:28;-0.60;99.90
1383;DHT22;685;47.196;11.880;2023-02-26T08:19:56;-0.60;99.90
1383;DHT22;685;47.196;11.880;2023-02-26T08:22:23;-0.50;99.90
1383;DHT22;685;47.196;11.880;2023-02-26T08:24:50;-0.50;99.90
1383;DHT22;685;47.196;11.880;2023-02-26T08:27:17;-0.70;99.90
1383;DHT22;685;47.196;11.880;2023-02-26T08:29:46;-0.50;99.90
1383;DHT22;685;47.196;11.880;2023-02-26T08:32:15;-0.50;99.90
1383;DHT22;685;47.196;11.880;2023-02-26T08:34:42;-0.60;99.90
1383;DHT22;685;47.196;11.880;2023-02-26T08:37:11;-0.60;99.90
1383;DHT22;685;47.196;11.880;2023-02-26T08:39:38;-0.60;99.90
1383;DHT22;685;47.196;11.880;2023-02-26T08:42:06;-0.60;99.90
1383;DHT22;685;47.196;11.880;2023-02-26T08:44:33;-0.50;99.90
1383;DHT22;685;47.196;11.880;2023-02-26T08:47:00;-0.60;99.90
1383;DHT22;685;47.196;11.880;2023-02-26T08:49:28;-0.60;99.90
1383;DHT22;685;47.196;11.880;2023-02-26T08:51:55;-0.70;99.90
1383;DHT22;685;47.196;11.880;2023-02-26T08:54:23;-0.60;99.90
1383;DHT22;685;47.196;11.880;2023-02-26T08:56:51;-0.70;99.90
1383;DHT22;685;47.196;11.880;2023-02-26T08:59:20;-0.70;99.90
1383;DHT22;685;47.196;11.880;2023-02-26T09:01:47;-0.60;99.90
1383;DHT22;685;47.196;11.880;2023-02-26T09:04:14;-0.60;99.90
1383;DHT22;685;47.196;11.880;2023-02-26T09:06:41;-0.60;99.90
1383;DHT22;685;47.196;11.880;2023-02-26T09:09:08;-0.60;99.90
1383;DHT22;685;47.196;11.880;2023-02-26T09:11:37;-0.50;99.90
1383;DHT22;685;47.196;11.880;2023-02-26T09:14:04;-0.50;99.90
1383;DHT22;685;47.196;11.880;2023-02-26T09:16:31;-0.50;99.90
1383;DHT22;685;47.196;11.880;2023-02-26T09:18:59;-0.60;99.90
1383;DHT22;685;47.196;11.880;2023-02-26T09:21:26;-0.50;99.90
1383;DHT22;685;47.196;11.880;2023-02-26T09:23:53;-0.50;99.90
1383;DHT22;685;47.196;11.880;2023-02-26T09:26:20;-0.50;99.90
1383;DHT22;685;47.196;11.880;2023-02-26T09:28:48;-0.50;99.90
1383;DHT22;685;47.196;11.880;2023-02-26T09:31:16;-0.50;99.90
1383;DHT22;685;47.196;11.880;2023-02-26T09:33:43;-0.50;99.90
1383;DHT22;685;47.196;11.880;2023-02-26T09:36:10;-0.60;99.90
1383;DHT22;685;47.196;11.880;2023-02-26T09:38:37;-0.50;99.90
1383;DHT22;685;47.196;11.880;2023-02-26T09:41:06;-0.60;99.90
1383;DHT22;685;47.196;11.880;2023-02-26T09:43:53;-0.60;99.90
1383;DHT22;685;47.196;11.880;2023-02-26T09:46:36;-0.50;99.90
1383;DHT22;685;47.196;11.880;2023-02-26T09:49:14;-0.50;99.90
1383;DHT22;685;47.196;11.880;2023-02-26T09:51:45;-0.60;99.90
1383;DHT22;685;47.196;11.880;2023-02-26T09:54:17;-0.60;99.90
1383;DHT22;685;47.196;11.880;2023-02-26T09:56:46;-0.50;99.90
1383;DHT22;685;47.196;11.880;2023-02-26T09:59:15;-0.50;99.90
1383;DHT22;685;47.196;11.880;2023-02-26T10:01:47;-0.50;99.90
1383;DHT22;685;47.196;11.880;2023-02-26T10:04:25;-0.40;99.90
1383;DHT22;685;47.196;11.880;2023-02-26T10:07:05;-0.40;99.90
1383;DHT22;685;47.196;11.880;2023-02-26T10:09:45;-0.40;99.90
1383;DHT22;685;47.196;11.880;2023-02-26T10:12:18;-0.40;99.90
1383;DHT22;685;47.196;11.880;2023-02-26T10:14:53;-0.40;99.90
1383;DHT22;685;47.196;11.880;2023-02-26T10:17:25;-0.40;99.90
1383;DHT22;685;47.196;11.880;2023-02-26T10:19:58;-0.40;99.90
1383;DHT22;685;47.196;11.880;2023-02-26T10:22:29;-0.40;99.90
1383;DHT22;685;47.196;11.880;2023-02-26T10:25:01;-0.40;99.90
1383;DHT22;685;47.196;11.880;2023-02-26T10:27:39;-0.30;99.90
1383;DHT22;685;47.196;11.880;2023-02-26T10:30:13;-0.30;99.90
1383;DHT22;685;47.196;11.880;2023-02-26T10:32:51;-0.20;99.90
1383;DHT22;685;47.196;11.880;2023-02-26T10:35:22;-0.30;99.90
1383;DHT22;685;47.196;11.880;2023-02-26T10:37:56;-0.20;99.90
1383;DHT22;685;47.196;11.880;2023-02-26T10:40:28;-0.10;99.90
1383;DHT22;685;47.196;11.880;2023-02-26T10:42:59;-0.30;99.90
1383;DHT22;685;47.196;11.880;2023-02-26T10:45:39;-0.30;99.90
1383;DHT22;685;47.196;11.880;2023-02-26T10:48:17;-0.40;99.90
1383;DHT22;685;47.196;11.880;2023-02-26T10:50:49;-0.30;99.90
1383;DHT22;685;47.196;11.880;2023-02-26T10:53:16;-0.40;99.90
1383;DHT22;685;47.196;11.880;2023-02-26T10:55:46;-0.40;99.90
1383;DHT22;685;47.196;11.880;2023-02-26T10:58:16;-0.40;99.90
1383;DHT22;685;47.196;11.880;2023-02-26T11:00:46;-0.50;99.90
1383;DHT22;685;47.196;11.880;2023-02-26T11:03:17;-0.40;99.90
1383;DHT22;685;47.196;11.880;2023-02-26T11:05:45;-0.40;99.90
1383;DHT22;685;47.196;11.880;2023-02-26T11:08:17;-0.20;99.90
1383;DHT22;685;47.196;11.880;2023-02-26T11:10:50;-0.40;99.90
1383;DHT22;685;47.196;11.880;2023-02-26T11:13:20;-0.30;99.90
1383;DHT22;685;47.196;11.880;2023-02-26T11:15:50;-0.20;99.90
1383;DHT22;685;47.196;11.880;2023-02-26T11:18:26;-0.10;99.90
1383;DHT22;685;47.196;11.880;2023-02-26T11:20:56;-0.20;99.90
1383;DHT22;685;47.196;11.880;2023-02-26T11:23:25;-0.20;99.90
1383;DHT22;685;47.196;11.880;2023-02-26T11:25:56;-0.10;99.90
1383;DHT22;685;47.196;11.880;2023-02-26T11:28:31;-0.30;99.90
1383;DHT22;685;47.196;11.880;2023-02-26T11:31:01;-0.20;99.90
1383;DHT22;685;47.196;11.880;2023-02-26T11:33:35;-0.10;99.90
1383;DHT22;685;47.196;11.880;2023-02-26T11:36:07;-0.30;99.90
1383;DHT22;685;47.196;11.880;2023-02-26T11:38:35;-0.30;99.90
1383;DHT22;685;47.196;11.880;2023-02-26T11:41:04;-0.30;99.90
1383;DHT22;685;47.196;11.880;2023-02-26T11:43:38;-0.30;99.90
1383;DHT22;685;47.196;11.880;2023-02-26T11:46:08;-0.30;99.90
1383;DHT22;685;47.196;11.880;2023-02-26T11:48:39;-0.40;99.90
1383;DHT22;685;47.196;11.880;2023-02-26T11:51:10;-0.50;99.90
1383;DHT22;685;47.196;11.880;2023-02-26T11:53:42;-0.50;99.90
1383;DHT22;685;47.196;11.880;2023-02-26T11:56:11;-0.50;99.90
1383;DHT22;685;47.196;11.880;2023-02-26T11:58:40;-0.50;99.90
1383;DHT22;685;47.196;11.880;2023-02-26T12:01:12;-0.30;99.90
1383;DHT22;685;47.196;11.880;2023-02-26T12:03:43;-0.30;99.90
1383;DHT22;685;47.196;11.880;2023-02-26T12:06:16;-0.30;99.90
1383;DHT22;685;47.196;11.880;2023-02-26T12:08:43;-0.40;99.90
1383;DHT22;685;47.196;11.880;2023-02-26T12:11:48;-0.40;99.90
1383;DHT22;685;47.196;11.880;2023-02-26T12:14:30;-0.40;99.90
1383;DHT22;685;47.196;11.880;2023-02-26T12:17:11;-0.40;99.90
1383;DHT22;685;47.196;11.880;2023-02-26T12:19:48;0.00;99.90
1383;DHT22;685;47.196;11.880;2023-02-26T12:22:32;-0.10;99.90
1383;DHT22;685;47.196;11.880;2023-02-26T12:28:06;-0.30;99.90
1383;DHT22;685;47.196;11.880;2023-02-26T12:30:57;-0.30;99.90
1383;DHT22;685;47.196;11.880;2023-02-26T12:33:40;-0.30;99.90
1383;DHT22;685;47.196;11.880;2023-02-26T12:36:20;-0.30;99.90
1383;DHT22;685;47.196;11.880;2023-02-26T12:38:57;-0.20;99.90
1383;DHT22;685;47.196;11.880;2023-02-26T12:41:45;-0.20;99.90
1383;DHT22;685;47.196;11.880;2023-02-26T12:44:25;-0.30;99.90
1383;DHT22;685;47.196;11.880;2023-02-26T12:47:08;-0.30;99.90
1383;DHT22;685;47.196;11.880;2023-02-26T12:49:58;-0.30;99.90
1383;DHT22;685;47.196;11.880;2023-02-26T12:52:51;-0.40;99.90
1383;DHT22;685;47.196;11.880;2023-02-26T12:55:29;-0.20;99.90
1383;DHT22;685;47.196;11.880;2023-02-26T12:58:33;-0.20;99.90
1383;DHT22;685;47.196;11.880;2023-02-26T13:01:08;-0.10;99.90
1383;DHT22;685;47.196;11.880;2023-02-26T13:04:08;-0.20;99.90
1383;DHT22;685;47.196;11.880;2023-02-26T13:07:06;-0.10;99.90
1383;DHT22;685;47.196;11.880;2023-02-26T13:09:42;0.10;99.90
1383;DHT22;685;47.196;11.880;2023-02-26T13:12:21;0.20;99.90
1383;DHT22;685;47.196;11.880;2023-02-26T13:14:56;0.20;99.90
1383;DHT22;685;47.196;11.880;2023-02-26T13:17:32;0.20;99.90
1383;DHT22;685;47.196;11.880;2023-02-26T13:20:08;0.20;99.90
1383;DHT22;685;47.196;11.880;2023-02-26T13:22:41;0.10;99.90
1383;DHT22;685;47.196;11.880;2023-02-26T13:25:17;0.30;99.90
1383;DHT22;685;47.196;11.880;2023-02-26T13:27:46;0.40;99.90
1383;DHT22;685;47.196;11.880;2023-02-26T13:30:19;0.30;99.90
1383;DHT22;685;47.196;11.880;2023-02-26T13:32:50;0.20;99.90
1383;DHT22;685;47.196;11.880;2023-02-26T13:35:21;0.10;99.90
1383;DHT22;685;47.196;11.880;2023-02-26T13:37:53;0.10;99.90
1383;DHT22;685;47.196;11.880;2023-02-26T13:43:35;-0.20;99.90
1383;DHT22;685;47.196;11.880;2023-02-26T13:46:11;-0.40;99.90
1383;DHT22;685;47.196;11.880;2023-02-26T13:48:48;-0.10;99.90
1383;DHT22;685;47.196;11.880;2023-02-26T13:51:28;-0.20;99.90
1383;DHT22;685;47.196;11.880;2023-02-26T13:54:00;-0.10;99.90
1383;DHT22;685;47.196;11.880;2023-02-26T13:56:52;-0.10;99.90
1383;DHT22;685;47.196;11.880;2023-02-26T13:59:29;-0.10;99.90
1383;DHT22;685;47.196;11.880;2023-02-26T14:02:00;0.00;99.90
1383;DHT22;685;47.196;11.880;2023-02-26T14:04:29;0.10;99.90
1383;DHT22;685;47.196;11.880;2023-02-26T14:06:59;0.10;99.90
1383;DHT22;685;47.196;11.880;2023-02-26T14:09:36;0.20;99.90
1383;DHT22;685;47.196;11.880;2023-02-26T14:12:24;0.10;99.90
1383;DHT22;685;47.196;11.880;2023-02-26T14:18:02;0.20;99.90
1383;DHT22;685;47.196;11.880;2023-02-26T14:20:31;0.10;99.90
1383;DHT22;685;47.196;11.880;2023-02-26T14:23:33;0.00;99.90
1383;DHT22;685;47.196;11.880;2023-02-26T14:26:11;0.00;99.90
1383;DHT22;685;47.196;11.880;2023-02-26T14:28:44;0.10;99.90
1383;DHT22;685;47.196;11.880;2023-02-26T14:31:17;0.00;99.90
1383;DHT22;685;47.196;11.880;2023-02-26T14:36:44;0.10;99.90
1383;DHT22;685;47.196;11.880;2023-02-26T14:39:25;0.10;99.90
1383;DHT22;685;47.196;11.880;2023-02-26T14:41:59;0.00;99.90
1383;DHT22;685;47.196;11.880;2023-02-26T14:44:29;-0.10;99.90
1383;DHT22;685;47.196;11.880;2023-02-26T14:46:57;-0.10;99.90
1383;DHT22;685;47.196;11.880;2023-02-26T14:49:34;0.00;99.90
1383;DHT22;685;47.196;11.880;2023-02-26T14:52:26;-0.10;99.90
1383;DHT22;685;47.196;11.880;2023-02-26T14:55:12;-0.20;99.90
1383;DHT22;685;47.196;11.880;2023-02-26T14:57:52;-0.20;99.90
1383;DHT22;685;47.196;11.880;2023-02-26T15:00:32;-0.10;99.90
1383;DHT22;685;47.196;11.880;2023-02-26T15:03:29;-0.20;99.90
1383;DHT22;685;47.196;11.880;2023-02-26T15:06:20;-0.40;99.90
1383;DHT22;685;47.196;11.880;2023-02-26T15:08:59;-0.40;99.90
1383;DHT22;685;47.196;11.880;2023-02-26T15:11:43;-0.70;99.90
1383;DHT22;685;47.196;11.880;2023-02-26T15:14:40;-0.60;99.90
1383;DHT22;685;47.196;11.880;2023-02-26T15:17:18;-0.60;99.90
1383;DHT22;685;47.196;11.880;2023-02-26T15:20:00;-0.60;99.90
1383;DHT22;685;47.196;11.880;2023-02-26T15:22:39;-0.60;99.90
1383;DHT22;685;47.196;11.880;2023-02-26T15:25:15;-0.60;99.90
1383;DHT22;685;47.196;11.880;2023-02-26T15:27:44;-0.70;99.90
1383;DHT22;685;47.196;11.880;2023-02-26T15:30:14;-0.70;99.90
1383;DHT22;685;47.196;11.880;2023-02-26T15:32:41;-0.60;99.90
1383;DHT22;685;47.196;11.880;2023-02-26T15:35:14;-0.60;99.90
1383;DHT22;685;47.196;11.880;2023-02-26T15:37:41;-0.60;99.90
1383;DHT22;685;47.196;11.880;2023-02-26T15:40:10;-0.60;99.90
1383;DHT22;685;47.196;11.880;2023-02-26T15:42:41;-0.60;99.90
1383;DHT22;685;47.196;11.880;2023-02-26T15:45:15;-0.60;99.90
1383;DHT22;685;47.196;11.880;2023-02-26T15:47:45;-0.50;99.90
1383;DHT22;685;47.196;11.880;2023-02-26T15:50:15;-0.60;99.90
1383;DHT22;685;47.196;11.880;2023-02-26T15:52:42;-0.60;99.90
1383;DHT22;685;47.196;11.880;2023-02-26T15:55:15;-0.60;99.90
1383;DHT22;685;47.196;11.880;2023-02-26T15:57:43;-0.70;99.90
1383;DHT22;685;47.196;11.880;2023-02-26T16:00:17;-0.70;99.90
1383;DHT22;685;47.196;11.880;2023-02-26T16:02:49;-0.60;99.90
1383;DHT22;685;47.196;11.880;2023-02-26T16:05:18;-0.60;99.90
1383;DHT22;685;47.196;11.880;2023-02-26T16:07:45;-0.60;99.90
1383;DHT22;685;47.196;11.880;2023-02-26T16:10:16;-0.60;99.90
1383;DHT22;685;47.196;11.880;2023-02-26T16:12:45;-0.60;99.90
1383;DHT22;685;47.196;11.880;2023-02-26T16:15:27;-0.50;99.90
1383;DHT22;685;47.196;11.880;2023-02-26T16:17:55;-0.50;99.90
1383;DHT22;685;47.196;11.880;2023-02-26T16:20:25;-0.40;99.90
1383;DHT22;685;47.196;11.880;2023-02-26T16:22:55;-0.50;99.90
1383;DHT22;685;47.196;11.880;2023-02-26T16:25:27;-0.50;99.90
1383;DHT22;685;47.196;11.880;2023-02-26T16:27:58;-0.40;99.90
1383;DHT22;685;47.196;11.880;2023-02-26T16:30:30;-0.40;99.90
1383;DHT22;685;47.196;11.880;2023-02-26T16:32:58;-0.50;99.90
1383;DHT22;685;47.196;11.880;2023-02-26T16:35:31;-0.50;99.90
1383;DHT22;685;47.196;11.880;2023-02-26T16:38:02;-0.40;99.90
1383;DHT22;685;47.196;11.880;2023-02-26T16:40:33;-0.40;99.90
1383;DHT22;685;47.196;11.880;2023-02-26T16:43:02;-0.40;99.90
1383;DHT22;685;47.196;11.880;2023-02-26T16:45:47;-0.30;99.90
1383;DHT22;685;47.196;11.880;2023-02-26T16:48:17;-0.40;99.90
1383;DHT22;685;47.196;11.880;2023-02-26T16:50:54;-0.40;99.90
1383;DHT22;685;47.196;11.880;2023-02-26T16:53:31;-0.40;99.90
1383;DHT22;685;47.196;11.880;2023-02-26T16:55:59;-0.40;99.90
1383;DHT22;685;47.196;11.880;2023-02-26T16:58:26;-0.40;99.90